Am Qui, Tennessee
Current Conditions -  °F | °C
As of 7:53 AM on Saturday 01 Nov 2014 (Local Time) from KBNA Reporting Station
Broken Clouds Broken Clouds  
Wind Chill: 30°   Ceiling: 2800
Heat Index: 37°   Visibility: 10mi
Dew Point: 26°   Wind: 10mph
Humidity: 65%   Direction: 340°NNW
Pressure: 30.25"   Gusts: NA
Location:  36.2555°N, 86.6973°W
Report Text: KBNA 011253Z 34009KT 10SM BKN028 03/M03 A3025 RMK AO2 PK WND 01027/1154 SLP247 T00281033
Loading
Personal Weather Stations






























Interactive Weather Map
Tropical Storm Tracking
New forecast layout! Learn more

10-Day Weather Forecast

Advertisements
Track Severe Weather on mobile